X  Sluiten METAR luchtvaart weer gegevens      EBBR Brussels Airport
Temperatuur
11°C Temperatuur
6°C Dauwpunt
72% Vochtigheid



Wind
21 KM/U
13 MPH
6 M/S
11 KTS



190°
Zuid
Huidig weer

Helder Helder
Luchtdruk 1006.92 (hPa) - 29.73 (inHg)
Zicht 6.2 (mijl) - 10 (km)
Vliegveld
Vliegveld code EBBR

Locatie : Brussels Airport
Afstand: 14 (km)

Metar:
EBBR 200520Z 19011KT CAVOK 11/06 Q1007 NOSIG

Tijd: 2020-10-20 07:20 CEST